sensor_id;sensor_type;location;lat;lon;timestamp;P1;durP1;ratioP1;P2;durP2;ratioP2
35887;SDS011;21990;42.540;23.496;2023-02-12T00:00:47;108.05;;;43.85;;
35887;SDS011;21990;42.540;23.496;2023-02-12T00:03:12;105.28;;;43.75;;
35887;SDS011;21990;42.540;23.496;2023-02-12T00:05:38;122.28;;;45.55;;
35887;SDS011;21990;42.540;23.496;2023-02-12T00:08:05;86.57;;;37.50;;
35887;SDS011;21990;42.540;23.496;2023-02-12T00:10:32;95.93;;;39.35;;
35887;SDS011;21990;42.540;23.496;2023-02-12T00:12:57;88.28;;;38.78;;
35887;SDS011;21990;42.540;23.496;2023-02-12T04:51:04;98.88;;;36.80;;
35887;SDS011;21990;42.540;23.496;2023-02-12T04:53:29;100.93;;;38.15;;
35887;SDS011;21990;42.540;23.496;2023-02-12T04:55:55;92.75;;;38.72;;
35887;SDS011;21990;42.540;23.496;2023-02-12T04:58:20;98.60;;;40.10;;
35887;SDS011;21990;42.540;23.496;2023-02-12T05:00:46;102.97;;;41.72;;
35887;SDS011;21990;42.540;23.496;2023-02-12T05:03:11;107.32;;;43.88;;
35887;SDS011;21990;42.540;23.496;2023-02-12T05:05:37;102.97;;;40.53;;
35887;SDS011;21990;42.540;23.496;2023-02-12T05:08:02;91.10;;;40.35;;
35887;SDS011;21990;42.540;23.496;2023-02-12T05:10:28;99.80;;;40.00;;
35887;SDS011;21990;42.540;23.496;2023-02-12T05:12:53;100.63;;;40.00;;
35887;SDS011;21990;42.540;23.496;2023-02-12T05:15:19;107.00;;;40.97;;
35887;SDS011;21990;42.540;23.496;2023-02-12T05:17:46;81.93;;;35.53;;
35887;SDS011;21990;42.540;23.496;2023-02-12T05:20:11;75.90;;;31.63;;
35887;SDS011;21990;42.540;23.496;2023-02-12T05:22:38;86.97;;;35.53;;
35887;SDS011;21990;42.540;23.496;2023-02-12T05:25:03;157.23;;;58.65;;
35887;SDS011;21990;42.540;23.496;2023-02-12T05:27:29;148.27;;;53.38;;
35887;SDS011;21990;42.540;23.496;2023-02-12T05:29:55;107.63;;;40.38;;
35887;SDS011;21990;42.540;23.496;2023-02-12T05:32:21;74.82;;;32.88;;
35887;SDS011;21990;42.540;23.496;2023-02-12T05:34:47;52.30;;;21.23;;
35887;SDS011;21990;42.540;23.496;2023-02-12T05:37:13;49.33;;;21.58;;
35887;SDS011;21990;42.540;23.496;2023-02-12T05:39:39;53.75;;;22.48;;
35887;SDS011;21990;42.540;23.496;2023-02-12T05:42:04;60.17;;;27.13;;
35887;SDS011;21990;42.540;23.496;2023-02-12T05:44:30;62.50;;;28.88;;
35887;SDS011;21990;42.540;23.496;2023-02-12T05:46:55;76.47;;;33.35;;
35887;SDS011;21990;42.540;23.496;2023-02-12T05:49:21;56.92;;;25.58;;
35887;SDS011;21990;42.540;23.496;2023-02-12T05:51:46;76.03;;;29.90;;
35887;SDS011;21990;42.540;23.496;2023-02-12T05:54:12;92.97;;;37.28;;
35887;SDS011;21990;42.540;23.496;2023-02-12T05:56:42;49.65;;;22.42;;
35887;SDS011;21990;42.540;23.496;2023-02-12T05:59:16;44.08;;;19.48;;
35887;SDS011;21990;42.540;23.496;2023-02-12T06:01:45;44.63;;;20.38;;
35887;SDS011;21990;42.540;23.496;2023-02-12T06:04:14;45.08;;;20.23;;
35887;SDS011;21990;42.540;23.496;2023-02-12T06:06:41;57.47;;;25.35;;
35887;SDS011;21990;42.540;23.496;2023-02-12T06:09:08;63.15;;;29.20;;
35887;SDS011;21990;42.540;23.496;2023-02-12T06:11:34;56.50;;;24.17;;
35887;SDS011;21990;42.540;23.496;2023-02-12T06:14:01;50.88;;;23.23;;
35887;SDS011;21990;42.540;23.496;2023-02-12T06:16:27;51.88;;;23.52;;
35887;SDS011;21990;42.540;23.496;2023-02-12T06:18:53;54.53;;;24.27;;
35887;SDS011;21990;42.540;23.496;2023-02-12T06:21:21;51.40;;;21.58;;
35887;SDS011;21990;42.540;23.496;2023-02-12T06:23:47;45.10;;;22.00;;
35887;SDS011;21990;42.540;23.496;2023-02-12T06:26:14;46.78;;;22.17;;
35887;SDS011;21990;42.540;23.496;2023-02-12T06:28:40;50.70;;;23.15;;
35887;SDS011;21990;42.540;23.496;2023-02-12T06:31:19;55.58;;;23.15;;
35887;SDS011;21990;42.540;23.496;2023-02-12T06:33:45;50.75;;;24.67;;
35887;SDS011;21990;42.540;23.496;2023-02-12T06:36:11;56.55;;;24.67;;
35887;SDS011;21990;42.540;23.496;2023-02-12T06:38:36;35.05;;;15.23;;
35887;SDS011;21990;42.540;23.496;2023-02-12T06:41:02;39.40;;;17.38;;
35887;SDS011;21990;42.540;23.496;2023-02-12T06:43:28;38.80;;;16.85;;
35887;SDS011;21990;42.540;23.496;2023-02-12T06:45:54;40.08;;;19.15;;
35887;SDS011;21990;42.540;23.496;2023-02-12T06:48:20;40.70;;;18.17;;
35887;SDS011;21990;42.540;23.496;2023-02-12T06:50:45;37.92;;;17.60;;
35887;SDS011;21990;42.540;23.496;2023-02-12T06:53:11;46.22;;;22.45;;
35887;SDS011;21990;42.540;23.496;2023-02-12T06:55:37;61.45;;;28.00;;
35887;SDS011;21990;42.540;23.496;2023-02-12T06:58:02;37.20;;;16.98;;
35887;SDS011;21990;42.540;23.496;2023-02-12T07:00:28;53.30;;;22.00;;
35887;SDS011;21990;42.540;23.496;2023-02-12T07:02:54;34.70;;;15.95;;
35887;SDS011;21990;42.540;23.496;2023-02-12T07:05:20;29.83;;;14.50;;
35887;SDS011;21990;42.540;23.496;2023-02-12T07:07:46;31.45;;;14.18;;
35887;SDS011;21990;42.540;23.496;2023-02-12T07:10:12;49.22;;;21.73;;
35887;SDS011;21990;42.540;23.496;2023-02-12T07:12:38;29.55;;;15.10;;
35887;SDS011;21990;42.540;23.496;2023-02-12T07:15:04;35.97;;;17.98;;
35887;SDS011;21990;42.540;23.496;2023-02-12T07:17:30;25.25;;;13.02;;
35887;SDS011;21990;42.540;23.496;2023-02-12T07:19:56;29.05;;;16.08;;
35887;SDS011;21990;42.540;23.496;2023-02-12T07:22:21;28.98;;;13.98;;
35887;SDS011;21990;42.540;23.496;2023-02-12T07:24:47;35.08;;;15.55;;
35887;SDS011;21990;42.540;23.496;2023-02-12T07:27:13;31.88;;;14.52;;
35887;SDS011;21990;42.540;23.496;2023-02-12T07:29:39;54.58;;;22.58;;
35887;SDS011;21990;42.540;23.496;2023-02-12T07:32:05;39.67;;;19.23;;
35887;SDS011;21990;42.540;23.496;2023-02-12T07:34:30;33.33;;;17.67;;
35887;SDS011;21990;42.540;23.496;2023-02-12T07:36:56;41.70;;;20.10;;
35887;SDS011;21990;42.540;23.496;2023-02-12T07:39:22;48.78;;;24.23;;
35887;SDS011;21990;42.540;23.496;2023-02-12T07:41:47;31.92;;;15.55;;
35887;SDS011;21990;42.540;23.496;2023-02-12T07:44:16;29.50;;;14.95;;
35887;SDS011;21990;42.540;23.496;2023-02-12T07:46:43;27.70;;;14.60;;
35887;SDS011;21990;42.540;23.496;2023-02-12T07:49:14;30.08;;;14.10;;
35887;SDS011;21990;42.540;23.496;2023-02-12T07:51:41;30.42;;;14.25;;
35887;SDS011;21990;42.540;23.496;2023-02-12T07:54:07;28.83;;;14.68;;
35887;SDS011;21990;42.540;23.496;2023-02-12T07:56:34;30.63;;;14.85;;
35887;SDS011;21990;42.540;23.496;2023-02-12T07:59:05;38.13;;;15.43;;
35887;SDS011;21990;42.540;23.496;2023-02-12T08:01:35;34.92;;;18.20;;
35887;SDS011;21990;42.540;23.496;2023-02-12T08:04:03;47.55;;;20.10;;
35887;SDS011;21990;42.540;23.496;2023-02-12T08:06:31;33.72;;;17.40;;
35887;SDS011;21990;42.540;23.496;2023-02-12T08:09:00;34.55;;;17.13;;
35887;SDS011;21990;42.540;23.496;2023-02-12T08:11:28;43.97;;;18.33;;
35887;SDS011;21990;42.540;23.496;2023-02-12T08:13:55;55.08;;;25.35;;
35887;SDS011;21990;42.540;23.496;2023-02-12T08:16:22;51.45;;;22.55;;
35887;SDS011;21990;42.540;23.496;2023-02-12T08:18:49;36.30;;;16.80;;
35887;SDS011;21990;42.540;23.496;2023-02-12T08:21:17;42.90;;;21.38;;
35887;SDS011;21990;42.540;23.496;2023-02-12T08:23:48;46.08;;;21.13;;
35887;SDS011;21990;42.540;23.496;2023-02-12T08:26:16;35.75;;;18.13;;
35887;SDS011;21990;42.540;23.496;2023-02-12T08:28:45;32.63;;;15.27;;
35887;SDS011;21990;42.540;23.496;2023-02-12T08:31:14;32.67;;;16.10;;
35887;SDS011;21990;42.540;23.496;2023-02-12T08:33:50;32.58;;;15.00;;
35887;SDS011;21990;42.540;23.496;2023-02-12T08:36:18;31.67;;;15.77;;
35887;SDS011;21990;42.540;23.496;2023-02-12T08:38:57;32.00;;;14.82;;
35887;SDS011;21990;42.540;23.496;2023-02-12T08:41:24;32.92;;;16.33;;
35887;SDS011;21990;42.540;23.496;2023-02-12T08:43:53;34.83;;;15.75;;
35887;SDS011;21990;42.540;23.496;2023-02-12T08:46:21;27.60;;;14.95;;
35887;SDS011;21990;42.540;23.496;2023-02-12T08:48:50;37.15;;;18.55;;
35887;SDS011;21990;42.540;23.496;2023-02-12T08:51:22;30.73;;;16.10;;
35887;SDS011;21990;42.540;23.496;2023-02-12T08:53:54;32.95;;;16.05;;
35887;SDS011;21990;42.540;23.496;2023-02-12T08:56:22;30.73;;;14.48;;
35887;SDS011;21990;42.540;23.496;2023-02-12T08:58:48;31.42;;;15.45;;
35887;SDS011;21990;42.540;23.496;2023-02-12T09:01:18;29.67;;;14.88;;
35887;SDS011;21990;42.540;23.496;2023-02-12T09:03:46;30.90;;;14.95;;
35887;SDS011;21990;42.540;23.496;2023-02-12T09:06:12;28.95;;;14.73;;
35887;SDS011;21990;42.540;23.496;2023-02-12T09:08:39;30.80;;;16.05;;
35887;SDS011;21990;42.540;23.496;2023-02-12T09:11:06;31.63;;;15.57;;
35887;SDS011;21990;42.540;23.496;2023-02-12T09:13:34;33.83;;;16.42;;
35887;SDS011;21990;42.540;23.496;2023-02-12T09:16:01;33.28;;;16.42;;
35887;SDS011;21990;42.540;23.496;2023-02-12T09:18:28;34.33;;;16.33;;
35887;SDS011;21990;42.540;23.496;2023-02-12T09:20:54;41.10;;;19.17;;
35887;SDS011;21990;42.540;23.496;2023-02-12T09:23:24;80.20;;;27.30;;
35887;SDS011;21990;42.540;23.496;2023-02-12T09:25:50;54.85;;;23.75;;
35887;SDS011;21990;42.540;23.496;2023-02-12T09:28:15;68.72;;;28.30;;
35887;SDS011;21990;42.540;23.496;2023-02-12T09:30:41;103.38;;;38.78;;
35887;SDS011;21990;42.540;23.496;2023-02-12T09:33:08;80.40;;;29.63;;
35887;SDS011;21990;42.540;23.496;2023-02-12T09:35:35;72.68;;;30.00;;
35887;SDS011;21990;42.540;23.496;2023-02-12T09:38:03;53.90;;;25.38;;
35887;SDS011;21990;42.540;23.496;2023-02-12T09:40:35;57.15;;;25.67;;
35887;SDS011;21990;42.540;23.496;2023-02-12T09:46:09;59.28;;;28.23;;
35887;SDS011;21990;42.540;23.496;2023-02-12T09:51:18;83.72;;;35.45;;
35887;SDS011;21990;42.540;23.496;2023-02-12T09:53:44;148.77;;;50.83;;
35887;SDS011;21990;42.540;23.496;2023-02-12T09:56:13;234.63;;;72.88;;
35887;SDS011;21990;42.540;23.496;2023-02-12T09:58:53;86.95;;;34.85;;
35887;SDS011;21990;42.540;23.496;2023-02-12T10:01:22;288.40;;;89.20;;
35887;SDS011;21990;42.540;23.496;2023-02-12T10:03:48;76.20;;;28.98;;
35887;SDS011;21990;42.540;23.496;2023-02-12T10:06:19;57.40;;;25.27;;
35887;SDS011;21990;42.540;23.496;2023-02-12T10:27:53;47.65;;;24.40;;
35887;SDS011;21990;42.540;23.496;2023-02-12T10:30:25;81.95;;;39.55;;
35887;SDS011;21990;42.540;23.496;2023-02-12T10:32:53;54.67;;;26.20;;
35887;SDS011;21990;42.540;23.496;2023-02-12T10:35:24;49.80;;;26.73;;
35887;SDS011;21990;42.540;23.496;2023-02-12T10:37:55;54.03;;;27.05;;
35887;SDS011;21990;42.540;23.496;2023-02-12T10:40:32;52.85;;;26.02;;
35887;SDS011;21990;42.540;23.496;2023-02-12T10:43:02;104.65;;;49.80;;
35887;SDS011;21990;42.540;23.496;2023-02-12T10:45:29;47.78;;;24.90;;
35887;SDS011;21990;42.540;23.496;2023-02-12T10:48:03;59.70;;;27.88;;
35887;SDS011;21990;42.540;23.496;2023-02-12T10:53:24;158.98;;;56.17;;
35887;SDS011;21990;42.540;23.496;2023-02-12T11:01:24;55.83;;;26.65;;
35887;SDS011;21990;42.540;23.496;2023-02-12T11:03:56;39.25;;;21.00;;
35887;SDS011;21990;42.540;23.496;2023-02-12T11:06:26;39.60;;;21.20;;
35887;SDS011;21990;42.540;23.496;2023-02-12T11:08:57;49.67;;;25.20;;
35887;SDS011;21990;42.540;23.496;2023-02-12T11:11:29;58.67;;;27.42;;
35887;SDS011;21990;42.540;23.496;2023-02-12T11:14:19;56.47;;;27.70;;
35887;SDS011;21990;42.540;23.496;2023-02-12T11:16:56;48.72;;;22.33;;
35887;SDS011;21990;42.540;23.496;2023-02-12T11:19:30;40.60;;;20.35;;
35887;SDS011;21990;42.540;23.496;2023-02-12T11:24:42;42.70;;;22.35;;
35887;SDS011;21990;42.540;23.496;2023-02-12T11:29:41;71.68;;;36.10;;
35887;SDS011;21990;42.540;23.496;2023-02-12T11:32:14;56.83;;;29.58;;
35887;SDS011;21990;42.540;23.496;2023-02-12T11:34:40;47.45;;;25.58;;
35887;SDS011;21990;42.540;23.496;2023-02-12T11:37:13;105.18;;;41.92;;
35887;SDS011;21990;42.540;23.496;2023-02-12T11:39:41;119.13;;;46.63;;
35887;SDS011;21990;42.540;23.496;2023-02-12T11:42:16;118.35;;;54.85;;
35887;SDS011;21990;42.540;23.496;2023-02-12T11:44:50;55.25;;;23.70;;
35887;SDS011;21990;42.540;23.496;2023-02-12T11:47:22;44.83;;;23.42;;
35887;SDS011;21990;42.540;23.496;2023-02-12T11:49:55;37.20;;;20.38;;
35887;SDS011;21990;42.540;23.496;2023-02-12T11:52:25;39.70;;;20.20;;
35887;SDS011;21990;42.540;23.496;2023-02-12T11:54:55;41.97;;;23.08;;
35887;SDS011;21990;42.540;23.496;2023-02-12T11:57:37;41.88;;;23.80;;
35887;SDS011;21990;42.540;23.496;2023-02-12T12:02:41;49.80;;;23.08;;
35887;SDS011;21990;42.540;23.496;2023-02-12T12:05:36;49.60;;;24.58;;
35887;SDS011;21990;42.540;23.496;2023-02-12T12:08:13;43.95;;;21.25;;
35887;SDS011;21990;42.540;23.496;2023-02-12T12:10:47;37.13;;;19.90;;
35887;SDS011;21990;42.540;23.496;2023-02-12T12:13:18;36.45;;;18.52;;
35887;SDS011;21990;42.540;23.496;2023-02-12T12:15:49;37.25;;;19.05;;
35887;SDS011;21990;42.540;23.496;2023-02-12T12:18:55;32.25;;;16.70;;
35887;SDS011;21990;42.540;23.496;2023-02-12T12:24:34;43.30;;;21.42;;
35887;SDS011;21990;42.540;23.496;2023-02-12T12:36:23;35.45;;;19.17;;
35887;SDS011;21990;42.540;23.496;2023-02-12T12:44:50;35.33;;;19.13;;
35887;SDS011;21990;42.540;23.496;2023-02-12T12:59:20;49.47;;;24.45;;
35887;SDS011;21990;42.540;23.496;2023-02-12T13:07:58;43.63;;;22.45;;
35887;SDS011;21990;42.540;23.496;2023-02-12T13:10:59;53.95;;;27.08;;
35887;SDS011;21990;42.540;23.496;2023-02-12T13:13:32;112.63;;;57.60;;
35887;SDS011;21990;42.540;23.496;2023-02-12T13:27:15;52.25;;;23.80;;
35887;SDS011;21990;42.540;23.496;2023-02-12T13:29:58;49.58;;;23.83;;
35887;SDS011;21990;42.540;23.496;2023-02-12T13:32:25;48.60;;;26.70;;
35887;SDS011;21990;42.540;23.496;2023-02-12T13:34:54;60.25;;;31.20;;
35887;SDS011;21990;42.540;23.496;2023-02-12T13:37:28;47.28;;;24.00;;
35887;SDS011;21990;42.540;23.496;2023-02-12T13:40:03;53.17;;;27.30;;
35887;SDS011;21990;42.540;23.496;2023-02-12T13:45:20;50.15;;;27.70;;
35887;SDS011;21990;42.540;23.496;2023-02-12T13:53:34;66.82;;;37.03;;
35887;SDS011;21990;42.540;23.496;2023-02-12T13:58:52;63.65;;;33.72;;
35887;SDS011;21990;42.540;23.496;2023-02-12T14:06:50;53.55;;;25.23;;
35887;SDS011;21990;42.540;23.496;2023-02-12T14:12:32;42.90;;;23.92;;
35887;SDS011;21990;42.540;23.496;2023-02-12T14:17:53;74.90;;;36.00;;
35887;SDS011;21990;42.540;23.496;2023-02-12T14:20:23;43.08;;;22.23;;
35887;SDS011;21990;42.540;23.496;2023-02-12T14:33:43;233.35;;;120.50;;
35887;SDS011;21990;42.540;23.496;2023-02-12T14:36:14;48.20;;;24.17;;
35887;SDS011;21990;42.540;23.496;2023-02-12T14:38:57;47.25;;;25.45;;
35887;SDS011;21990;42.540;23.496;2023-02-12T14:41:29;81.20;;;37.20;;
35887;SDS011;21990;42.540;23.496;2023-02-12T14:46:50;153.90;;;80.85;;
35887;SDS011;21990;42.540;23.496;2023-02-12T14:57:25;89.75;;;45.67;;
35887;SDS011;21990;42.540;23.496;2023-02-12T15:05:28;50.78;;;29.20;;
35887;SDS011;21990;42.540;23.496;2023-02-12T15:10:39;42.30;;;23.77;;
35887;SDS011;21990;42.540;23.496;2023-02-12T15:18:40;50.95;;;25.90;;
35887;SDS011;21990;42.540;23.496;2023-02-12T15:21:22;54.08;;;25.02;;
35887;SDS011;21990;42.540;23.496;2023-02-12T15:24:03;53.85;;;29.98;;
35887;SDS011;21990;42.540;23.496;2023-02-12T15:26:32;59.30;;;30.15;;
35887;SDS011;21990;42.540;23.496;2023-02-12T15:29:00;54.22;;;26.70;;
35887;SDS011;21990;42.540;23.496;2023-02-12T15:31:28;49.75;;;25.90;;
35887;SDS011;21990;42.540;23.496;2023-02-12T15:33:56;47.67;;;25.52;;
35887;SDS011;21990;42.540;23.496;2023-02-12T15:36:24;68.45;;;31.88;;
35887;SDS011;21990;42.540;23.496;2023-02-12T15:39:03;62.22;;;31.27;;
35887;SDS011;21990;42.540;23.496;2023-02-12T15:43:56;50.08;;;26.70;;
35887;SDS011;21990;42.540;23.496;2023-02-12T15:46:22;45.70;;;26.55;;
35887;SDS011;21990;42.540;23.496;2023-02-12T15:48:48;46.45;;;23.67;;
35887;SDS011;21990;42.540;23.496;2023-02-12T15:54:05;44.60;;;23.27;;
35887;SDS011;21990;42.540;23.496;2023-02-12T15:56:32;50.83;;;24.77;;
35887;SDS011;21990;42.540;23.496;2023-02-12T15:59:00;47.55;;;25.38;;
35887;SDS011;21990;42.540;23.496;2023-02-12T16:01:28;51.47;;;25.90;;
35887;SDS011;21990;42.540;23.496;2023-02-12T16:04:00;53.72;;;26.27;;
35887;SDS011;21990;42.540;23.496;2023-02-12T16:06:30;56.13;;;29.08;;
35887;SDS011;21990;42.540;23.496;2023-02-12T16:09:01;50.58;;;26.40;;
35887;SDS011;21990;42.540;23.496;2023-02-12T16:11:30;59.80;;;29.52;;
35887;SDS011;21990;42.540;23.496;2023-02-12T16:13:58;53.70;;;27.55;;
35887;SDS011;21990;42.540;23.496;2023-02-12T16:16:34;48.05;;;26.98;;
35887;SDS011;21990;42.540;23.496;2023-02-12T16:19:26;55.67;;;28.50;;
35887;SDS011;21990;42.540;23.496;2023-02-12T16:22:07;72.10;;;34.78;;
35887;SDS011;21990;42.540;23.496;2023-02-12T16:24:44;108.72;;;56.85;;
35887;SDS011;21990;42.540;23.496;2023-02-12T16:29:49;107.45;;;53.53;;
35887;SDS011;21990;42.540;23.496;2023-02-12T16:32:33;97.43;;;51.10;;
35887;SDS011;21990;42.540;23.496;2023-02-12T16:50:37;49.78;;;25.63;;
35887;SDS011;21990;42.540;23.496;2023-02-12T16:53:53;53.03;;;26.80;;
35887;SDS011;21990;42.540;23.496;2023-02-12T16:56:08;65.13;;;32.72;;
35887;SDS011;21990;42.540;23.496;2023-02-12T16:58:39;70.28;;;33.88;;
35887;SDS011;21990;42.540;23.496;2023-02-12T17:01:05;87.97;;;43.47;;
35887;SDS011;21990;42.540;23.496;2023-02-12T17:03:32;81.20;;;40.30;;
35887;SDS011;21990;42.540;23.496;2023-02-12T17:05:58;85.22;;;38.72;;
35887;SDS011;21990;42.540;23.496;2023-02-12T17:08:24;80.65;;;38.83;;
35887;SDS011;21990;42.540;23.496;2023-02-12T17:10:50;74.95;;;38.55;;
35887;SDS011;21990;42.540;23.496;2023-02-12T17:13:16;81.85;;;37.95;;
35887;SDS011;21990;42.540;23.496;2023-02-12T17:15:46;67.35;;;35.08;;
35887;SDS011;21990;42.540;23.496;2023-02-12T17:18:16;81.05;;;38.97;;
35887;SDS011;21990;42.540;23.496;2023-02-12T17:20:43;90.13;;;44.97;;
35887;SDS011;21990;42.540;23.496;2023-02-12T17:23:11;83.13;;;41.10;;
35887;SDS011;21990;42.540;23.496;2023-02-12T17:25:37;78.20;;;39.53;;
35887;SDS011;21990;42.540;23.496;2023-02-12T17:28:05;83.40;;;42.90;;
35887;SDS011;21990;42.540;23.496;2023-02-12T17:30:33;82.43;;;39.13;;
35887;SDS011;21990;42.540;23.496;2023-02-12T17:33:04;91.32;;;44.05;;
35887;SDS011;21990;42.540;23.496;2023-02-12T17:35:31;102.20;;;48.58;;
35887;SDS011;21990;42.540;23.496;2023-02-12T17:37:57;96.70;;;47.08;;
35887;SDS011;21990;42.540;23.496;2023-02-12T17:40:23;115.60;;;56.45;;
35887;SDS011;21990;42.540;23.496;2023-02-12T17:42:48;101.28;;;48.85;;
35887;SDS011;21990;42.540;23.496;2023-02-12T17:45:14;99.18;;;48.85;;
35887;SDS011;21990;42.540;23.496;2023-02-12T17:47:41;92.65;;;44.33;;
35887;SDS011;21990;42.540;23.496;2023-02-12T17:50:07;86.45;;;43.50;;
35887;SDS011;21990;42.540;23.496;2023-02-12T17:52:35;107.65;;;50.97;;
35887;SDS011;21990;42.540;23.496;2023-02-12T17:55:04;86.90;;;43.58;;
35887;SDS011;21990;42.540;23.496;2023-02-12T17:57:30;94.95;;;46.33;;
35887;SDS011;21990;42.540;23.496;2023-02-12T17:59:56;99.75;;;46.28;;
35887;SDS011;21990;42.540;23.496;2023-02-12T18:02:22;124.82;;;55.80;;
35887;SDS011;21990;42.540;23.496;2023-02-12T18:04:48;119.88;;;56.92;;
35887;SDS011;21990;42.540;23.496;2023-02-12T18:07:13;113.00;;;52.75;;
35887;SDS011;21990;42.540;23.496;2023-02-12T18:09:39;117.28;;;55.50;;
35887;SDS011;21990;42.540;23.496;2023-02-12T18:12:05;106.75;;;51.20;;
35887;SDS011;21990;42.540;23.496;2023-02-12T18:14:31;134.45;;;61.92;;
35887;SDS011;21990;42.540;23.496;2023-02-12T18:16:57;122.20;;;55.28;;
35887;SDS011;21990;42.540;23.496;2023-02-12T18:19:24;130.93;;;59.70;;
35887;SDS011;21990;42.540;23.496;2023-02-12T18:21:50;113.10;;;53.85;;
35887;SDS011;21990;42.540;23.496;2023-02-12T18:24:15;110.65;;;50.97;;
35887;SDS011;21990;42.540;23.496;2023-02-12T18:26:41;122.55;;;57.10;;
35887;SDS011;21990;42.540;23.496;2023-02-12T18:29:07;137.35;;;62.63;;
35887;SDS011;21990;42.540;23.496;2023-02-12T18:31:32;132.48;;;60.38;;
35887;SDS011;21990;42.540;23.496;2023-02-12T18:33:59;122.82;;;58.72;;
35887;SDS011;21990;42.540;23.496;2023-02-12T18:36:24;126.15;;;57.88;;
35887;SDS011;21990;42.540;23.496;2023-02-12T18:38:50;121.60;;;56.88;;
35887;SDS011;21990;42.540;23.496;2023-02-12T18:41:26;125.03;;;57.30;;
35887;SDS011;21990;42.540;23.496;2023-02-12T18:43:55;109.18;;;50.97;;
35887;SDS011;21990;42.540;23.496;2023-02-12T18:46:22;116.05;;;55.40;;
35887;SDS011;21990;42.540;23.496;2023-02-12T18:48:49;167.68;;;80.47;;
35887;SDS011;21990;42.540;23.496;2023-02-12T18:51:18;211.27;;;98.80;;
35887;SDS011;21990;42.540;23.496;2023-02-12T18:54:07;245.93;;;112.05;;
35887;SDS011;21990;42.540;23.496;2023-02-12T18:56:38;198.80;;;91.43;;
35887;SDS011;21990;42.540;23.496;2023-02-12T18:59:07;172.43;;;82.47;;
35887;SDS011;21990;42.540;23.496;2023-02-12T19:01:36;208.05;;;96.55;;
35887;SDS011;21990;42.540;23.496;2023-02-12T19:04:02;194.80;;;93.18;;
35887;SDS011;21990;42.540;23.496;2023-02-12T19:06:30;207.25;;;96.45;;
35887;SDS011;21990;42.540;23.496;2023-02-12T19:08:58;240.18;;;106.85;;
35887;SDS011;21990;42.540;23.496;2023-02-12T19:11:26;321.77;;;140.40;;
35887;SDS011;21990;42.540;23.496;2023-02-12T19:13:52;421.05;;;166.63;;
35887;SDS011;21990;42.540;23.496;2023-02-12T19:16:19;428.20;;;160.88;;
35887;SDS011;21990;42.540;23.496;2023-02-12T19:18:47;395.40;;;141.63;;
35887;SDS011;21990;42.540;23.496;2023-02-12T19:21:13;432.77;;;144.18;;
35887;SDS011;21990;42.540;23.496;2023-02-12T19:23:43;285.90;;;102.43;;
35887;SDS011;21990;42.540;23.496;2023-02-12T19:26:12;277.65;;;98.78;;
35887;SDS011;21990;42.540;23.496;2023-02-12T19:28:40;351.08;;;118.82;;
35887;SDS011;21990;42.540;23.496;2023-02-12T19:31:08;331.95;;;119.65;;
35887;SDS011;21990;42.540;23.496;2023-02-12T19:33:34;270.95;;;97.88;;
35887;SDS011;21990;42.540;23.496;2023-02-12T19:36:01;216.63;;;86.22;;
35887;SDS011;21990;42.540;23.496;2023-02-12T19:38:27;300.35;;;108.70;;
35887;SDS011;21990;42.540;23.496;2023-02-12T19:41:00;292.85;;;110.22;;
35887;SDS011;21990;42.540;23.496;2023-02-12T19:43:27;279.33;;;104.93;;
35887;SDS011;21990;42.540;23.496;2023-02-12T19:45:53;302.45;;;113.35;;
35887;SDS011;21990;42.540;23.496;2023-02-12T19:48:19;301.55;;;112.25;;
35887;SDS011;21990;42.540;23.496;2023-02-12T19:50:44;268.15;;;105.25;;
35887;SDS011;21990;42.540;23.496;2023-02-12T19:53:10;285.30;;;110.28;;
35887;SDS011;21990;42.540;23.496;2023-02-12T19:55:36;290.50;;;114.10;;
35887;SDS011;21990;42.540;23.496;2023-02-12T19:58:01;330.73;;;131.35;;
35887;SDS011;21990;42.540;23.496;2023-02-12T20:00:27;363.42;;;151.75;;
35887;SDS011;21990;42.540;23.496;2023-02-12T20:02:52;333.17;;;138.85;;
35887;SDS011;21990;42.540;23.496;2023-02-12T20:05:18;312.27;;;126.60;;
35887;SDS011;21990;42.540;23.496;2023-02-12T20:07:43;281.88;;;115.32;;
35887;SDS011;21990;42.540;23.496;2023-02-12T20:10:10;246.88;;;101.95;;
35887;SDS011;21990;42.540;23.496;2023-02-12T20:12:36;244.35;;;99.35;;
35887;SDS011;21990;42.540;23.496;2023-02-12T20:15:04;254.63;;;99.85;;
35887;SDS011;21990;42.540;23.496;2023-02-12T20:17:30;265.25;;;105.30;;
35887;SDS011;21990;42.540;23.496;2023-02-12T20:19:55;251.73;;;98.03;;
35887;SDS011;21990;42.540;23.496;2023-02-12T20:22:21;317.52;;;121.55;;
35887;SDS011;21990;42.540;23.496;2023-02-12T20:24:46;281.45;;;109.70;;
35887;SDS011;21990;42.540;23.496;2023-02-12T20:27:12;209.07;;;83.93;;
35887;SDS011;21990;42.540;23.496;2023-02-12T20:29:38;175.50;;;74.47;;
35887;SDS011;21990;42.540;23.496;2023-02-12T20:32:03;185.32;;;74.35;;
35887;SDS011;21990;42.540;23.496;2023-02-12T20:34:29;189.35;;;78.35;;
35887;SDS011;21990;42.540;23.496;2023-02-12T20:36:54;175.65;;;74.00;;
35887;SDS011;21990;42.540;23.496;2023-02-12T20:39:20;181.05;;;74.50;;
35887;SDS011;21990;42.540;23.496;2023-02-12T20:41:46;177.25;;;71.53;;
35887;SDS011;21990;42.540;23.496;2023-02-12T20:44:13;201.23;;;78.55;;
35887;SDS011;21990;42.540;23.496;2023-02-12T20:46:42;208.10;;;83.38;;
35887;SDS011;21990;42.540;23.496;2023-02-12T20:49:10;188.45;;;78.30;;
35887;SDS011;21990;42.540;23.496;2023-02-12T20:51:37;218.65;;;85.95;;
35887;SDS011;21990;42.540;23.496;2023-02-12T20:54:03;203.10;;;84.25;;
35887;SDS011;21990;42.540;23.496;2023-02-12T20:56:30;211.35;;;86.10;;
35887;SDS011;21990;42.540;23.496;2023-02-12T20:58:57;362.35;;;152.75;;
35887;SDS011;21990;42.540;23.496;2023-02-12T21:01:24;332.02;;;143.63;;
35887;SDS011;21990;42.540;23.496;2023-02-12T21:03:52;261.25;;;112.93;;
35887;SDS011;21990;42.540;23.496;2023-02-12T21:06:19;266.08;;;112.45;;
35887;SDS011;21990;42.540;23.496;2023-02-12T21:08:46;273.92;;;117.53;;
35887;SDS011;21990;42.540;23.496;2023-02-12T21:11:14;283.25;;;120.93;;
35887;SDS011;21990;42.540;23.496;2023-02-12T21:13:42;273.02;;;116.63;;
35887;SDS011;21990;42.540;23.496;2023-02-12T21:16:53;292.77;;;118.68;;
35887;SDS011;21990;42.540;23.496;2023-02-12T21:19:01;297.35;;;118.80;;
35887;SDS011;21990;42.540;23.496;2023-02-12T21:21:28;311.33;;;127.45;;
35887;SDS011;21990;42.540;23.496;2023-02-12T21:23:56;229.48;;;99.05;;
35887;SDS011;21990;42.540;23.496;2023-02-12T21:26:23;229.70;;;95.75;;
35887;SDS011;21990;42.540;23.496;2023-02-12T21:28:51;223.40;;;95.93;;
35887;SDS011;21990;42.540;23.496;2023-02-12T21:31:18;254.98;;;107.55;;
35887;SDS011;21990;42.540;23.496;2023-02-12T21:33:47;260.90;;;111.03;;
35887;SDS011;21990;42.540;23.496;2023-02-12T21:36:14;247.82;;;105.82;;
35887;SDS011;21990;42.540;23.496;2023-02-12T21:38:42;250.60;;;104.82;;